createdAt,value
2023-07-25T00:00:26.606Z,1.00
2023-07-25T00:02:59.551Z,1.00
2023-07-25T00:05:13.594Z,1.30
2023-07-25T00:07:26.822Z,0.80
2023-07-25T00:09:39.516Z,1.10
2023-07-25T00:11:53.554Z,1.00
2023-07-25T00:14:06.233Z,1.10
2023-07-25T00:16:19.446Z,1.10
2023-07-25T00:18:32.394Z,1.00
2023-07-25T00:20:45.384Z,1.20
2023-07-25T00:22:58.254Z,1.00
2023-07-25T00:25:11.956Z,1.30
2023-07-25T00:27:25.233Z,1.00
2023-07-25T00:29:38.549Z,1.10
2023-07-25T00:31:51.529Z,1.30
2023-07-25T00:34:06.070Z,1.30
2023-07-25T00:36:18.923Z,1.20
2023-07-25T00:38:31.935Z,1.20
2023-07-25T00:40:46.858Z,1.20
2023-07-25T00:43:02.900Z,0.90
2023-07-25T00:45:16.912Z,1.10
2023-07-25T00:47:30.176Z,1.00
2023-07-25T00:49:44.280Z,1.10
2023-07-25T00:51:57.453Z,1.20
2023-07-25T00:54:10.881Z,0.70
2023-07-25T00:56:23.949Z,1.00
2023-07-25T00:58:36.482Z,1.00
2023-07-25T01:00:50.368Z,1.20
2023-07-25T01:03:03.231Z,1.20
2023-07-25T01:05:16.981Z,0.90
2023-07-25T01:07:30.909Z,1.10
2023-07-25T01:09:45.080Z,0.80
2023-07-25T01:11:57.907Z,0.90
2023-07-25T01:14:11.171Z,0.90
2023-07-25T01:16:28.187Z,1.00
2023-07-25T01:18:42.504Z,0.90
2023-07-25T01:20:55.696Z,1.00
2023-07-25T01:23:11.306Z,0.80
2023-07-25T01:25:24.100Z,0.70
2023-07-25T01:27:37.284Z,0.80
2023-07-25T01:29:50.074Z,1.10
2023-07-25T01:32:02.655Z,1.10
2023-07-25T01:34:18.899Z,1.60
2023-07-25T01:36:31.523Z,1.10
2023-07-25T01:38:44.768Z,0.80
2023-07-25T01:40:57.346Z,1.00
2023-07-25T01:43:10.156Z,1.10
2023-07-25T01:45:23.114Z,1.00
2023-07-25T01:47:35.698Z,1.00
2023-07-25T01:49:48.304Z,1.00
2023-07-25T01:52:01.804Z,0.90
2023-07-25T01:54:15.028Z,1.20
2023-07-25T01:56:28.235Z,1.10
2023-07-25T01:58:41.151Z,1.10
2023-07-25T02:01:00.054Z,0.90
2023-07-25T02:03:13.138Z,0.90
2023-07-25T02:05:26.328Z,1.20
2023-07-25T02:07:41.631Z,1.20
2023-07-25T02:09:54.555Z,1.00
2023-07-25T02:12:08.157Z,1.20
2023-07-25T02:14:20.900Z,1.00
2023-07-25T02:16:36.050Z,1.20
2023-07-25T02:18:48.751Z,1.00
2023-07-25T02:21:01.861Z,0.80
2023-07-25T02:23:14.646Z,1.20
2023-07-25T02:25:29.078Z,0.80
2023-07-25T02:27:41.948Z,0.80
2023-07-25T02:29:55.115Z,1.00
2023-07-25T02:32:07.947Z,1.00
2023-07-25T02:34:21.526Z,1.00
2023-07-25T02:36:34.267Z,0.90
2023-07-25T02:38:47.053Z,0.80
2023-07-25T02:41:02.241Z,0.80
2023-07-25T02:43:15.309Z,1.50
2023-07-25T02:45:27.789Z,0.80
2023-07-25T02:47:40.690Z,1.00
2023-07-25T02:49:55.227Z,0.90
2023-07-25T02:52:08.818Z,0.60
2023-07-25T02:54:22.001Z,0.60
2023-07-25T02:56:34.599Z,0.70
2023-07-25T02:58:47.043Z,0.70
2023-07-25T03:00:59.691Z,0.50
2023-07-25T03:03:12.924Z,0.60
2023-07-25T03:05:25.965Z,0.40
2023-07-25T03:07:38.775Z,0.40
2023-07-25T03:09:51.529Z,0.40
2023-07-25T03:12:03.999Z,0.40
2023-07-25T03:14:17.310Z,0.50
2023-07-25T03:16:30.117Z,0.50
2023-07-25T03:18:43.032Z,0.50
2023-07-25T03:20:55.701Z,0.60
2023-07-25T03:23:08.609Z,0.50
2023-07-25T03:25:21.556Z,0.50
2023-07-25T03:27:34.718Z,0.40
2023-07-25T03:29:47.628Z,0.50
2023-07-25T03:32:00.065Z,0.40
2023-07-25T03:34:13.062Z,0.60
2023-07-25T03:36:26.559Z,0.50
2023-07-25T03:38:39.162Z,0.60
2023-07-25T03:40:52.485Z,0.50
2023-07-25T03:43:05.215Z,0.60
2023-07-25T03:45:19.359Z,0.50
2023-07-25T03:47:32.927Z,0.60
2023-07-25T03:49:46.037Z,0.90
2023-07-25T03:51:58.925Z,0.70
2023-07-25T03:54:11.977Z,0.60
2023-07-25T03:56:24.943Z,0.60
2023-07-25T03:58:40.796Z,0.70
2023-07-25T04:00:53.988Z,1.30
2023-07-25T04:03:15.072Z,0.90
2023-07-25T04:05:29.069Z,1.40
2023-07-25T04:07:42.247Z,0.80
2023-07-25T04:09:54.883Z,0.80
2023-07-25T04:12:08.202Z,0.70
2023-07-25T04:14:21.088Z,1.30
2023-07-25T04:16:34.106Z,0.80
2023-07-25T04:18:47.069Z,0.80
2023-07-25T04:20:59.967Z,1.20
2023-07-25T04:23:12.548Z,0.60
2023-07-25T04:25:25.453Z,0.70
2023-07-25T04:27:38.005Z,0.90
2023-07-25T04:29:50.461Z,0.70
2023-07-25T04:32:03.134Z,0.80
2023-07-25T04:34:15.955Z,0.70
2023-07-25T04:36:31.119Z,0.90
2023-07-25T04:38:44.315Z,1.20
2023-07-25T04:40:58.991Z,0.80
2023-07-25T04:43:11.629Z,0.80
2023-07-25T04:45:24.595Z,0.70
2023-07-25T04:47:37.541Z,0.60
2023-07-25T04:49:50.485Z,1.50
2023-07-25T04:52:03.335Z,0.90
2023-07-25T04:54:16.300Z,0.80
2023-07-25T04:56:28.906Z,0.60
2023-07-25T04:58:43.317Z,0.80
2023-07-25T05:00:55.900Z,0.60
2023-07-25T05:03:08.443Z,0.80
2023-07-25T05:05:21.262Z,0.90
2023-07-25T05:07:33.866Z,0.90
2023-07-25T05:09:46.555Z,1.00
2023-07-25T05:11:59.681Z,0.90
2023-07-25T05:14:12.122Z,0.90
2023-07-25T05:16:24.919Z,1.00
2023-07-25T05:18:37.802Z,0.80
2023-07-25T05:20:51.036Z,0.90
2023-07-25T05:23:04.269Z,0.80
2023-07-25T05:25:17.146Z,0.80
2023-07-25T05:27:30.124Z,0.50
2023-07-25T05:29:43.540Z,0.80
2023-07-25T05:31:56.000Z,0.60
2023-07-25T05:34:08.492Z,0.70
2023-07-25T05:36:21.486Z,0.70
2023-07-25T05:38:34.239Z,0.70
2023-07-25T05:40:46.848Z,0.70
2023-07-25T05:42:59.313Z,0.90
2023-07-25T05:45:14.234Z,0.70
2023-07-25T05:47:27.025Z,0.70
2023-07-25T05:49:39.786Z,0.80
2023-07-25T05:51:52.656Z,0.60
2023-07-25T05:54:05.292Z,0.90
2023-07-25T05:56:18.389Z,0.80
2023-07-25T05:58:31.502Z,0.80
2023-07-25T06:00:45.472Z,0.60
2023-07-25T06:02:59.108Z,0.80
2023-07-25T06:05:12.477Z,0.70
2023-07-25T06:07:25.300Z,0.60
2023-07-25T06:09:39.231Z,0.60
2023-07-25T06:11:52.168Z,0.70
2023-07-25T06:14:06.505Z,0.60
2023-07-25T06:16:21.731Z,0.70
2023-07-25T06:18:34.520Z,0.70
2023-07-25T06:20:47.617Z,0.60
2023-07-25T06:23:00.153Z,0.50
2023-07-25T06:25:16.619Z,0.70
2023-07-25T06:27:30.280Z,0.50
2023-07-25T06:29:43.259Z,0.60
2023-07-25T06:31:55.812Z,0.70
2023-07-25T06:34:09.109Z,0.80
2023-07-25T06:36:21.888Z,0.50
2023-07-25T06:38:34.697Z,0.60
2023-07-25T06:40:47.332Z,0.60
2023-07-25T06:43:00.174Z,0.80
2023-07-25T06:45:14.640Z,0.70
2023-07-25T06:47:27.872Z,0.70
2023-07-25T06:49:40.594Z,0.80
2023-07-25T06:51:53.291Z,0.70
2023-07-25T06:54:05.894Z,0.70
2023-07-25T06:56:18.574Z,0.80
2023-07-25T06:58:31.469Z,0.80
2023-07-25T07:00:44.400Z,0.60
2023-07-25T07:02:57.905Z,0.80
2023-07-25T07:05:27.907Z,0.60
2023-07-25T07:09:53.367Z,0.70
2023-07-25T07:12:06.233Z,0.60
2023-07-25T07:14:19.053Z,0.80
2023-07-25T07:16:31.646Z,0.80
2023-07-25T07:18:44.366Z,0.70
2023-07-25T07:20:57.094Z,0.60
2023-07-25T07:23:09.782Z,0.70
2023-07-25T07:25:22.339Z,0.80
2023-07-25T07:27:35.595Z,0.70
2023-07-25T07:29:48.584Z,0.80
2023-07-25T07:32:01.809Z,0.90
2023-07-25T07:34:19.990Z,0.60
2023-07-25T07:36:32.611Z,0.70
2023-07-25T07:38:45.571Z,0.60
2023-07-25T07:40:58.523Z,0.60
2023-07-25T07:43:11.460Z,0.80
2023-07-25T07:45:26.128Z,0.70
2023-07-25T07:47:38.946Z,0.50
2023-07-25T07:49:51.698Z,0.50
2023-07-25T07:52:15.780Z,0.70
2023-07-25T07:54:33.028Z,0.60
2023-07-25T07:56:45.854Z,0.70
2023-07-25T07:58:58.460Z,0.70
2023-07-25T08:01:20.109Z,0.60
2023-07-25T08:03:32.688Z,0.70
2023-07-25T08:05:45.329Z,0.50
2023-07-25T08:07:58.393Z,0.60
2023-07-25T08:10:11.847Z,0.60
2023-07-25T08:12:24.780Z,0.40
2023-07-25T08:14:37.791Z,0.50
2023-07-25T08:16:50.610Z,0.50
2023-07-25T08:19:03.750Z,0.50
2023-07-25T08:21:16.345Z,0.60
2023-07-25T08:23:29.983Z,0.50
2023-07-25T08:25:44.238Z,0.50
2023-07-25T08:27:58.421Z,0.50
2023-07-25T08:30:12.898Z,0.50
2023-07-25T08:32:27.131Z,0.40
2023-07-25T08:34:40.010Z,0.30
2023-07-25T08:36:52.559Z,0.40
2023-07-25T08:39:05.615Z,0.50
2023-07-25T08:41:26.228Z,0.40
2023-07-25T08:43:42.108Z,0.40
2023-07-25T08:45:55.878Z,0.40
2023-07-25T08:48:15.057Z,0.40
2023-07-25T08:50:30.395Z,0.40
2023-07-25T08:52:43.965Z,0.50
2023-07-25T08:54:57.198Z,0.50
2023-07-25T08:57:10.466Z,0.40
2023-07-25T08:59:24.390Z,0.40
2023-07-25T09:01:37.651Z,0.40
2023-07-25T09:03:51.883Z,0.40
2023-07-25T09:06:05.339Z,0.40
2023-07-25T09:08:17.895Z,0.40
2023-07-25T09:10:31.663Z,0.30
2023-07-25T09:12:44.529Z,0.30
2023-07-25T09:14:57.672Z,0.60
2023-07-25T09:17:10.808Z,0.40
2023-07-25T09:19:23.707Z,0.40
2023-07-25T09:21:36.280Z,0.40
2023-07-25T09:23:57.083Z,0.40
2023-07-25T09:26:13.309Z,0.40
2023-07-25T09:28:26.206Z,0.30
2023-07-25T09:30:38.747Z,0.40
2023-07-25T09:32:57.358Z,0.30
2023-07-25T09:35:12.274Z,0.30
2023-07-25T09:37:24.845Z,0.30
2023-07-25T09:39:39.743Z,0.40
2023-07-25T09:41:54.575Z,0.30
2023-07-25T09:44:09.221Z,0.30
2023-07-25T09:46:22.389Z,0.70
2023-07-25T09:48:36.164Z,0.50
2023-07-25T09:50:49.065Z,0.40
2023-07-25T09:53:04.557Z,0.40
2023-07-25T09:55:17.331Z,0.40
2023-07-25T09:57:30.080Z,0.50
2023-07-25T09:59:43.473Z,0.50
2023-07-25T10:01:58.228Z,0.50
2023-07-25T10:04:12.555Z,0.50
2023-07-25T10:06:26.119Z,0.30
2023-07-25T10:08:38.999Z,0.40
2023-07-25T10:10:52.323Z,0.40
2023-07-25T10:13:05.243Z,0.50
2023-07-25T10:15:19.348Z,0.50
2023-07-25T10:17:33.060Z,0.90
2023-07-25T10:19:56.163Z,0.90
2023-07-25T10:22:09.167Z,1.10
2023-07-25T10:24:22.857Z,0.90
2023-07-25T10:26:35.908Z,0.80
2023-07-25T10:28:48.529Z,0.70
2023-07-25T10:34:02.548Z,0.50
2023-07-25T10:36:28.580Z,0.70
2023-07-25T10:38:43.193Z,0.60
2023-07-25T10:41:05.703Z,0.80
2023-07-25T10:43:18.905Z,0.80
2023-07-25T10:45:54.878Z,0.70
2023-07-25T10:48:28.011Z,0.80
2023-07-25T10:50:56.763Z,0.70
2023-07-25T10:53:22.537Z,0.70
2023-07-25T10:55:35.303Z,0.70
2023-07-25T10:58:07.953Z,0.80
2023-07-25T11:00:21.428Z,0.60
2023-07-25T11:02:40.027Z,0.70
2023-07-25T11:05:12.603Z,0.70
2023-07-25T11:07:25.725Z,0.50
2023-07-25T11:09:43.001Z,0.90
2023-07-25T11:11:56.565Z,0.80
2023-07-25T11:14:13.132Z,0.70
2023-07-25T11:16:28.013Z,0.70
2023-07-25T11:18:52.025Z,1.10
2023-07-25T11:21:09.219Z,0.90
2023-07-25T11:23:25.021Z,0.80
2023-07-25T11:25:37.635Z,0.80
2023-07-25T11:27:54.128Z,0.60
2023-07-25T11:30:18.605Z,0.70
2023-07-25T11:32:34.451Z,0.80
2023-07-25T11:34:52.088Z,0.90
2023-07-25T11:37:04.641Z,0.80
2023-07-25T11:39:17.951Z,0.90
2023-07-25T11:41:31.218Z,0.80
2023-07-25T11:43:46.750Z,1.00
2023-07-25T11:45:59.548Z,1.10
2023-07-25T11:48:16.188Z,0.90
2023-07-25T11:50:31.353Z,0.90
2023-07-25T11:52:47.773Z,0.70
2023-07-25T11:55:00.392Z,0.70
2023-07-25T11:57:15.365Z,0.80
2023-07-25T11:59:27.834Z,0.80
2023-07-25T12:01:40.809Z,0.80
2023-07-25T12:03:56.653Z,1.30
2023-07-25T12:06:10.180Z,0.70
2023-07-25T12:08:36.457Z,0.80
2023-07-25T12:10:50.768Z,0.80
2023-07-25T12:13:05.155Z,1.10
2023-07-25T12:15:18.400Z,1.10
2023-07-25T12:17:47.315Z,1.10
2023-07-25T12:20:03.290Z,0.90
2023-07-25T12:22:15.765Z,1.10
2023-07-25T12:24:28.648Z,1.40
2023-07-25T12:26:50.052Z,0.90
2023-07-25T12:29:02.720Z,1.20
2023-07-25T12:31:16.381Z,1.10
2023-07-25T12:33:29.686Z,1.20
2023-07-25T12:35:43.777Z,1.20
2023-07-25T12:37:56.396Z,1.30
2023-07-25T12:40:10.272Z,1.10
2023-07-25T12:42:22.890Z,0.90
2023-07-25T12:44:35.594Z,1.20
2023-07-25T12:46:48.126Z,1.30
2023-07-25T12:49:00.678Z,1.30
2023-07-25T12:51:13.280Z,1.00
2023-07-25T12:53:25.980Z,1.20
2023-07-25T12:55:39.102Z,1.10
2023-07-25T12:57:51.940Z,1.00
2023-07-25T13:00:07.220Z,1.70
2023-07-25T13:02:20.137Z,1.30
2023-07-25T13:04:33.381Z,1.50
2023-07-25T13:06:46.224Z,1.40
2023-07-25T13:08:58.763Z,1.30
2023-07-25T13:11:11.379Z,1.00
2023-07-25T13:13:23.879Z,1.40
2023-07-25T13:15:36.819Z,1.20
2023-07-25T13:17:49.501Z,1.20
2023-07-25T13:20:02.346Z,1.60
2023-07-25T13:22:15.374Z,1.70
2023-07-25T13:24:28.004Z,1.10
2023-07-25T13:26:40.488Z,1.30
2023-07-25T13:28:53.531Z,1.20
2023-07-25T13:31:07.005Z,1.30
2023-07-25T13:33:19.557Z,1.40
2023-07-25T13:35:32.304Z,1.40
2023-07-25T13:37:45.333Z,1.40
2023-07-25T13:39:58.033Z,1.30
2023-07-25T13:42:11.155Z,1.10
2023-07-25T13:44:23.724Z,1.30
2023-07-25T13:46:36.328Z,1.30
2023-07-25T13:48:49.793Z,1.20
2023-07-25T13:51:03.053Z,1.50
2023-07-25T13:53:16.219Z,0.90
2023-07-25T13:55:29.204Z,1.30
2023-07-25T13:57:41.804Z,0.90
2023-07-25T13:59:54.514Z,1.20
2023-07-25T14:02:07.505Z,0.90
2023-07-25T14:04:20.710Z,1.30
2023-07-25T14:06:33.241Z,1.10
2023-07-25T14:08:45.752Z,1.50
2023-07-25T14:10:58.563Z,1.00
2023-07-25T14:13:11.628Z,1.10
2023-07-25T14:15:24.465Z,1.80
2023-07-25T14:17:37.066Z,1.10
2023-07-25T14:19:49.627Z,1.00
2023-07-25T14:22:02.495Z,1.40
2023-07-25T14:24:15.104Z,1.10
2023-07-25T14:26:27.648Z,1.40
2023-07-25T14:28:40.412Z,1.00
2023-07-25T14:30:53.400Z,1.00
2023-07-25T14:33:06.027Z,1.20
2023-07-25T14:35:19.034Z,1.30
2023-07-25T14:37:40.288Z,1.20
2023-07-25T14:40:01.880Z,1.20
2023-07-25T14:42:14.622Z,1.60
2023-07-25T14:44:27.179Z,1.10
2023-07-25T14:46:39.778Z,1.30
2023-07-25T14:48:52.794Z,1.20
2023-07-25T14:51:05.320Z,1.80
2023-07-25T14:53:18.068Z,1.20
2023-07-25T14:55:30.944Z,1.10
2023-07-25T14:57:43.737Z,1.40
2023-07-25T14:59:56.163Z,1.20
2023-07-25T15:02:09.182Z,1.40
2023-07-25T15:04:21.816Z,1.00
2023-07-25T15:06:34.584Z,1.00
2023-07-25T15:08:48.083Z,1.10
2023-07-25T15:11:00.861Z,0.90
2023-07-25T15:13:13.738Z,1.40
2023-07-25T15:15:26.632Z,0.90
2023-07-25T15:17:40.303Z,1.30
2023-07-25T15:19:52.967Z,0.80
2023-07-25T15:22:05.769Z,0.90
2023-07-25T15:24:18.370Z,1.20
2023-07-25T15:26:31.253Z,1.10
2023-07-25T15:28:44.119Z,1.20
2023-07-25T15:30:58.205Z,1.20
2023-07-25T15:33:13.169Z,1.00
2023-07-25T15:35:28.987Z,0.80
2023-07-25T15:37:42.623Z,1.20
2023-07-25T15:39:55.937Z,0.90
2023-07-25T15:42:10.350Z,1.10
2023-07-25T15:44:23.085Z,1.10
2023-07-25T15:46:35.748Z,1.10
2023-07-25T15:48:48.867Z,0.80
2023-07-25T15:51:01.644Z,1.00
2023-07-25T15:53:14.940Z,1.00
2023-07-25T15:55:28.598Z,0.90
2023-07-25T15:57:41.113Z,1.10
2023-07-25T15:59:54.408Z,1.10
2023-07-25T16:02:07.201Z,1.20
2023-07-25T16:04:20.031Z,1.10
2023-07-25T16:06:32.441Z,1.00
2023-07-25T16:08:45.063Z,1.50
2023-07-25T16:10:57.741Z,1.10
2023-07-25T16:13:11.393Z,0.90
2023-07-25T16:15:24.509Z,1.30
2023-07-25T16:17:36.994Z,1.10
2023-07-25T16:19:49.798Z,1.10
2023-07-25T16:22:02.353Z,0.90
2023-07-25T16:24:15.197Z,0.80
2023-07-25T16:26:27.798Z,0.80
2023-07-25T16:28:40.376Z,0.90
2023-07-25T16:30:58.962Z,1.00
2023-07-25T16:33:19.739Z,1.90
2023-07-25T16:35:32.227Z,1.40
2023-07-25T16:37:46.754Z,1.20
2023-07-25T16:39:59.642Z,0.90
2023-07-25T16:42:14.353Z,1.10
2023-07-25T16:44:26.847Z,0.90
2023-07-25T16:46:39.809Z,0.90
2023-07-25T16:48:52.343Z,0.90
2023-07-25T16:51:04.995Z,1.00
2023-07-25T16:53:17.716Z,1.00
2023-07-25T16:55:30.322Z,0.80
2023-07-25T16:57:43.026Z,0.90
2023-07-25T16:59:55.649Z,1.10
2023-07-25T17:02:08.776Z,1.40
2023-07-25T17:04:21.560Z,0.90
2023-07-25T17:06:33.971Z,0.90
2023-07-25T17:08:48.143Z,1.20
2023-07-25T17:11:06.052Z,1.00
2023-07-25T17:13:18.720Z,1.10
2023-07-25T17:15:31.787Z,0.80
2023-07-25T17:17:45.051Z,0.80
2023-07-25T17:19:57.924Z,1.10
2023-07-25T17:22:11.314Z,0.80
2023-07-25T17:24:24.286Z,1.00
2023-07-25T17:26:37.019Z,1.00
2023-07-25T17:28:49.573Z,0.70
2023-07-25T17:31:02.634Z,0.80
2023-07-25T17:33:15.237Z,1.00
2023-07-25T17:35:36.728Z,1.10
2023-07-25T17:37:50.417Z,0.90
2023-07-25T17:40:03.280Z,0.90
2023-07-25T17:42:16.081Z,0.70
2023-07-25T17:44:28.704Z,0.90
2023-07-25T17:46:41.245Z,0.70
2023-07-25T17:48:55.590Z,0.90
2023-07-25T17:51:08.475Z,0.70
2023-07-25T17:53:21.600Z,0.60
2023-07-25T17:55:34.494Z,0.80
2023-07-25T17:57:47.134Z,1.10
2023-07-25T18:00:00.569Z,0.50
2023-07-25T18:02:13.568Z,0.70
2023-07-25T18:04:26.314Z,0.80
2023-07-25T18:06:39.053Z,0.70
2023-07-25T18:08:52.482Z,0.60
2023-07-25T18:11:05.067Z,1.10
2023-07-25T18:13:17.766Z,0.80
2023-07-25T18:15:30.916Z,0.70
2023-07-25T18:17:43.646Z,0.90
2023-07-25T18:19:57.202Z,0.80
2023-07-25T18:22:10.695Z,0.70
2023-07-25T18:24:23.520Z,0.70
2023-07-25T18:26:38.747Z,0.90
2023-07-25T18:28:52.130Z,1.00
2023-07-25T18:31:04.837Z,0.90
2023-07-25T18:33:17.940Z,0.90
2023-07-25T18:35:30.969Z,0.70
2023-07-25T18:37:43.823Z,1.00
2023-07-25T18:39:56.542Z,0.80
2023-07-25T18:42:09.900Z,0.90
2023-07-25T18:44:22.813Z,0.90
2023-07-25T18:46:36.210Z,0.90
2023-07-25T18:48:50.780Z,0.70
2023-07-25T18:51:04.402Z,0.90
2023-07-25T18:53:17.078Z,0.80
2023-07-25T18:55:30.549Z,0.70
2023-07-25T18:57:43.276Z,1.20
2023-07-25T18:59:57.876Z,1.10
2023-07-25T19:02:11.271Z,0.90
2023-07-25T19:04:23.989Z,0.80
2023-07-25T19:06:37.106Z,1.00
2023-07-25T19:08:49.948Z,0.60
2023-07-25T19:11:02.825Z,0.60
2023-07-25T19:13:15.663Z,1.00
2023-07-25T19:15:28.849Z,0.70
2023-07-25T19:17:41.663Z,0.50
2023-07-25T19:19:54.473Z,0.80
2023-07-25T19:22:08.882Z,0.50
2023-07-25T19:24:23.264Z,0.60
2023-07-25T19:26:36.477Z,0.40
2023-07-25T19:28:49.401Z,0.60
2023-07-25T19:31:03.171Z,0.70
2023-07-25T19:33:16.015Z,0.50
2023-07-25T19:35:29.804Z,0.70
2023-07-25T19:37:44.445Z,0.60
2023-07-25T19:39:57.135Z,0.50
2023-07-25T19:42:10.441Z,1.00
2023-07-25T19:44:23.125Z,0.70
2023-07-25T19:46:36.447Z,0.60
2023-07-25T19:48:51.204Z,0.40
2023-07-25T19:51:13.315Z,0.60
2023-07-25T19:53:26.241Z,0.30
2023-07-25T19:55:39.022Z,0.40
2023-07-25T19:57:52.105Z,0.20
2023-07-25T20:00:07.136Z,0.40
2023-07-25T20:02:19.821Z,0.50
2023-07-25T20:04:32.606Z,0.30
2023-07-25T20:06:45.463Z,0.60
2023-07-25T20:09:00.035Z,0.40
2023-07-25T20:11:14.117Z,0.60
2023-07-25T20:13:27.194Z,0.50
2023-07-25T20:15:39.919Z,0.60
2023-07-25T20:17:53.063Z,0.40
2023-07-25T20:20:06.100Z,0.60
2023-07-25T20:22:19.805Z,0.50
2023-07-25T20:24:33.002Z,0.80
2023-07-25T20:26:45.729Z,0.50
2023-07-25T20:28:58.850Z,0.40
2023-07-25T20:31:12.401Z,0.50
2023-07-25T20:33:25.417Z,0.50
2023-07-25T20:35:38.121Z,0.50
2023-07-25T20:37:50.980Z,0.60
2023-07-25T20:40:03.923Z,0.70
2023-07-25T20:42:16.553Z,0.60
2023-07-25T20:44:29.172Z,0.60
2023-07-25T20:46:41.898Z,0.70
2023-07-25T20:48:54.762Z,0.90
2023-07-25T20:51:08.218Z,0.70
2023-07-25T20:53:21.190Z,0.60
2023-07-25T20:55:34.178Z,0.60
2023-07-25T20:57:47.410Z,0.80
2023-07-25T21:00:00.662Z,0.70
2023-07-25T21:02:13.378Z,0.70
2023-07-25T21:04:28.340Z,0.50
2023-07-25T21:06:41.741Z,0.60
2023-07-25T21:08:54.648Z,0.40
2023-07-25T21:11:10.174Z,0.90
2023-07-25T21:13:23.257Z,0.70
2023-07-25T21:15:35.880Z,0.70
2023-07-25T21:17:55.634Z,0.70
2023-07-25T21:20:17.744Z,0.90
2023-07-25T21:22:30.520Z,0.60
2023-07-25T21:24:43.517Z,0.70
2023-07-25T21:26:56.443Z,0.60
2023-07-25T21:29:09.215Z,0.60
2023-07-25T21:31:22.408Z,0.70
2023-07-25T21:33:35.212Z,0.60
2023-07-25T21:35:47.963Z,0.50
2023-07-25T21:38:00.680Z,0.60
2023-07-25T21:40:16.981Z,0.60
2023-07-25T21:42:29.655Z,0.80
2023-07-25T21:44:42.208Z,1.00
2023-07-25T21:46:55.499Z,0.50
2023-07-25T21:49:08.370Z,0.70
2023-07-25T21:51:24.099Z,0.70
2023-07-25T21:53:37.050Z,0.90
2023-07-25T21:55:50.335Z,0.40
2023-07-25T21:58:03.237Z,0.60
2023-07-25T22:00:17.916Z,0.60
2023-07-25T22:02:31.045Z,0.60
2023-07-25T22:04:44.350Z,0.50
2023-07-25T22:06:57.121Z,0.70
2023-07-25T22:09:09.937Z,1.10
2023-07-25T22:11:23.091Z,0.50
2023-07-25T22:13:35.975Z,0.70
2023-07-25T22:15:48.914Z,0.50
2023-07-25T22:18:01.997Z,1.20
2023-07-25T22:20:17.188Z,0.60
2023-07-25T22:22:29.781Z,0.40
2023-07-25T22:24:42.485Z,1.20
2023-07-25T22:26:55.169Z,0.80
2023-07-25T22:29:07.898Z,0.50
2023-07-25T22:31:20.962Z,0.60
2023-07-25T22:33:33.938Z,0.40
2023-07-25T22:35:46.629Z,0.70
2023-07-25T22:38:09.086Z,0.50
2023-07-25T22:40:21.773Z,0.80
2023-07-25T22:42:34.339Z,0.70
2023-07-25T22:44:47.053Z,0.70
2023-07-25T22:46:59.759Z,1.20
2023-07-25T22:49:12.489Z,0.70
2023-07-25T22:51:25.217Z,0.60
2023-07-25T22:53:37.885Z,0.50
2023-07-25T22:55:50.580Z,0.60
2023-07-25T22:58:03.702Z,0.50
2023-07-25T23:00:17.874Z,0.70
2023-07-25T23:02:30.628Z,0.70
2023-07-25T23:04:43.865Z,0.60
2023-07-25T23:09:22.307Z,0.70
2023-07-25T23:11:39.765Z,0.80
2023-07-25T23:13:52.763Z,0.50
2023-07-25T23:16:05.338Z,0.60
2023-07-25T23:18:18.139Z,0.60
2023-07-25T23:20:31.245Z,0.50
2023-07-25T23:22:43.969Z,0.70
2023-07-25T23:24:58.181Z,0.70
2023-07-25T23:27:11.683Z,0.60
2023-07-25T23:29:24.219Z,0.70
2023-07-25T23:31:37.025Z,0.50
2023-07-25T23:33:49.777Z,0.60
2023-07-25T23:36:03.139Z,1.10
2023-07-25T23:38:16.139Z,0.80
2023-07-25T23:40:29.182Z,0.60
2023-07-25T23:42:41.950Z,0.50
2023-07-25T23:44:54.530Z,1.40
2023-07-25T23:47:08.507Z,0.50
2023-07-25T23:49:21.419Z,0.60
2023-07-25T23:51:34.166Z,0.60
2023-07-25T23:53:46.627Z,0.70
2023-07-25T23:56:02.569Z,0.60
2023-07-25T23:58:15.407Z,0.50
